Disclaimer: Data is provisional and is subject to revision. Not to be used as official record

Enter Station name or Station Shef Code



Query Executed Wed Oct 20 12:45:57 PDT 2021

SLPT_WX LMC Weather Station 41.5297 -119.05457
5909 Lower Mahogany Creek

Date / Time Air Temp C (C) Relative Humidity (%) Pressure (hPa) Wind Speed (mph) Wind Direction (Degree) Dew Point (C) Rainfall Annual (in) Solar Radiation (w/m^2) Snow Depth (in) SWE (in) Battery (V)
2021-10-20 12:00 PM 10.60 51.30 820.60 13.90 222.00 0.97 0.00 676.90 -0.20 0.00 12.84
2021-10-20 11:00 AM 8.80 47.80 820.90 16.60 214.00 -1.66 0.00 642.20 0.10 0.00 12.71
2021-10-20 10:00 AM 7.70 52.20 820.30 12.20 205.00 -1.48 0.00 583.30 0.00 0.00 12.16
2021-10-20 09:00 AM 6.00 58.20 820.20 9.00 221.00 -1.59 0.00 95.80 0.00 0.00 11.97
2021-10-20 08:00 AM 5.20 59.10 819.30 7.60 229.00 -2.13 0.00 25.49 -0.10 0.00 11.98
2021-10-20 07:00 AM 5.10 60.50 818.30 10.20 219.00 -1.91 0.00 -0.66 -0.10 0.00 12.00
2021-10-20 06:00 AM 5.70 58.60 817.70 12.80 215.00 -1.78 0.00 -1.49 -0.10 0.00 12.02
2021-10-20 05:00 AM 3.90 81.40 817.80 7.70 207.00 1.01 0.00 -9.45 -0.10 0.00 12.05
2021-10-20 04:00 AM 3.30 87.40 816.90 9.80 215.00 1.41 0.00 -11.62 -0.10 0.00 12.07
2021-10-20 03:00 AM 5.00 77.30 816.70 8.50 224.00 1.36 0.00 -3.25 -0.20 0.00 12.11
2021-10-20 02:00 AM 5.60 72.30 816.40 6.80 212.00 1.01 0.00 -2.96 -0.20 0.00 12.13
2021-10-20 01:00 AM 5.00 82.10 816.10 8.40 206.00 2.21 0.00 -10.81 -0.10 0.00 12.16
2021-10-20 12:00 AM 5.00 81.80 816.10 11.10 230.00 2.15 0.00 -1.45 -0.10 0.00 12.18
2021-10-19 11:00 PM 7.40 57.00 816.00 9.20 202.00 -0.56 0.00 -1.71 -0.20 0.00 12.21
2021-10-19 10:00 PM 4.10 81.50 816.70 1.90 62.00 1.22 0.00 -2.80 -0.20 0.00 12.42
2021-10-19 09:00 PM 4.70 81.20 816.90 5.90 179.00 1.76 0.00 -11.63 0.00 0.00 12.26
2021-10-19 08:00 PM 6.30 70.60 816.90 7.60 213.00 1.36 0.00 -12.53 -0.30 0.00 12.32
2021-10-19 07:00 PM 5.80 73.30 817.10 9.60 208.00 1.40 0.00 -11.36 0.10 0.00 12.40
2021-10-19 06:00 PM 6.60 72.80 817.20 5.20 211.00 2.07 0.00 3.17 -0.20 0.00 12.54
2021-10-19 05:00 PM 7.40 68.50 817.30 12.60 200.00 1.99 0.00 85.10 -0.10 0.00 12.59
2021-10-19 04:00 PM 8.00 62.70 817.60 15.30 200.00 1.33 0.00 195.70 0.00 0.00 12.70
2021-10-19 03:00 PM 7.90 56.80 817.80 15.60 194.00 -0.14 0.00 223.90 0.00 0.00 12.78
2021-10-19 02:00 PM 8.70 61.90 817.60 16.40 206.00 1.81 0.00 727.40 0.10 0.00 13.56
2021-10-19 01:00 PM 7.40 77.70 818.60 12.00 204.00 3.77 0.00 599.70 0.00 0.00 13.34
2021-10-19 12:00 PM 5.80 84.20 818.80 5.00 220.00 3.35 0.00 585.20 -0.10 0.00 13.21
2021-10-19 11:00 AM 4.60 100.00 819.20 6.80 208.00 4.60 0.00 559.10 0.10 0.00 13.30
2021-10-19 10:00 AM 2.10 100.00 819.40 3.40 191.00 2.10 0.00 308.00 0.10 0.00 12.38
2021-10-19 09:00 AM 0.60 100.00 819.30 3.20 140.00 0.60 0.00 306.10 0.20 0.00 12.82
2021-10-19 08:00 AM -4.40 100.00 818.90 1.90 103.00 -4.40 0.00 137.90 0.10 0.02 12.23
2021-10-19 07:00 AM -5.30 100.00 818.70 2.30 333.00 -5.30 0.00 -10.78 -0.10 0.02 12.20
2021-10-19 06:00 AM -5.00 100.00 818.80 3.10 2.00 -5.00 0.00 -12.45 -0.10 0.03 12.21
2021-10-19 05:00 AM -5.00 100.00 818.60 3.80 112.00 -5.00 0.00 -12.17 0.00 0.04 12.22
2021-10-19 04:00 AM -4.30 100.00 818.10 1.70 324.00 -4.30 0.00 -12.06 0.00 0.02 12.27
2021-10-19 03:00 AM -2.00 100.00 818.80 2.00 94.00 -2.00 0.00 -12.53 -0.20 0.00 12.27
2021-10-19 02:00 AM -1.30 100.00 818.50 1.00 232.00 -1.30 0.00 -13.63 -0.40 0.00 12.48
2021-10-19 01:00 AM -1.30 100.00 818.30 2.60 32.00 -1.30 0.00 -13.42 -0.10 0.00 12.46
2021-10-19 12:00 AM -0.80 100.00 818.10 2.30 16.00 -0.80 0.00 -12.78 -0.20 0.00 12.37
2021-10-18 11:00 PM 0.20 100.00 818.10 3.10 90.00 0.20 0.00 -12.21 -0.20 0.00 12.47
2021-10-18 10:00 PM 1.60 100.00 818.00 1.70 143.00 1.60 0.00 -13.93 -0.20 0.00 12.46
2021-10-18 09:00 PM 3.50 100.00 817.40 3.20 204.00 3.50 0.00 -11.71 -0.10 0.00 12.56
2021-10-18 08:00 PM 4.10 100.00 817.00 4.40 217.00 4.10 0.00 -11.43 -0.10 0.00 12.55
2021-10-18 07:00 PM 4.00 97.40 816.50 4.10 4.60 173.00 3.63 0.00 -13.81 108.30 5.19
2021-10-18 06:00 PM 4.50 100.00 816.30 4.60 4.90 186.00 4.50 0.00 -8.03 108.10 5.30
2021-10-18 05:00 PM 5.30 94.80 815.80 1.60 1.80 211.00 4.54 0.00 52.72 108.00 5.06
2021-10-18 04:00 PM 0.00 0.00 0.00 0.00 0.00 0.00 0.00 58.16 0.00 0.00 14.11
2021-10-18 03:00 PM 0.00 0.00 0.00 0.00 0.00 0.00 0.00 228.70 0.00 0.00 14.03
2021-10-18 02:00 PM 0.00 0.00 0.00 0.00 0.00 0.00 0.00 148.50 0.00 0.12 13.03
2021-10-18 01:00 PM 0.00 0.00 0.00 0.00 0.00 0.00 0.00 234.70 0.00 0.25 12.92
2021-10-18 12:00 PM 0.00 0.00 0.00 0.00 0.00 0.00 0.00 216.40 0.00 0.18 12.84
2021-10-18 11:00 AM 0.00 0.00 0.00 0.00 0.00 0.00 0.00 183.40 0.00 0.16 12.78
2021-10-18 10:00 AM 0.00 0.00 0.00 0.00 0.00 0.00 0.00 57.12 0.00 0.18 12.82
2021-10-18 09:00 AM 0.00 0.00 0.00 0.00 0.00 0.00 0.00 45.26 0.00 0.18 12.82
2021-10-18 08:00 AM 0.00 0.00 0.00 0.00 0.00 0.00 0.00 28.79 0.00 0.08 12.82
2021-10-18 07:00 AM 0.00 0.00 0.00 0.00 0.00 0.00 0.00 -0.20 0.00 0.07 12.83
2021-10-18 06:00 AM 0.00 0.00 0.00 0.00 0.00 0.00 0.00 -0.41 0.00 0.08 12.84
2021-10-18 05:00 AM 0.00 0.00 0.00 0.00 0.00 0.00 0.00 -0.28 0.00 0.04 12.79
2021-10-18 04:00 AM 0.00 0.00 0.00 0.00 0.00 0.00 0.00 -0.97 0.00 0.01 12.86
2021-10-18 03:00 AM 0.00 0.00 0.00 0.00 0.00 0.00 0.00 -0.32 0.00 0.00 12.89
2021-10-18 02:00 AM 0.00 0.00 0.00 0.00 0.00 0.00 0.00 -1.40 0.00 0.00 12.90
2021-10-18 01:00 AM 0.00 0.00 0.00 0.00 0.00 0.00 0.00 -1.15 0.00 0.00 12.91
2021-10-18 12:00 AM 0.00 0.00 0.00 0.00 0.00 0.00 0.00 -1.37 0.00 0.00 12.93
2021-10-17 11:00 PM 0.00 0.00 0.00 0.00 0.00 0.00 0.00 -2.60 0.00 0.00 12.95
2021-10-17 10:00 PM 0.00 0.00 0.00 0.00 0.00 0.00 0.00 -2.36 0.00 0.00 12.96
2021-10-17 09:00 PM 0.00 0.00 0.00 0.00 0.00 0.00 0.00 -2.26 0.00 0.00 12.99
2021-10-17 08:00 PM 0.00 0.00 0.00 0.00 0.00 0.00 0.00 -2.43 0.00 0.00 13.01
2021-10-17 07:00 PM 0.00 0.00 0.00 0.00 0.00 0.00 0.00 -1.62 0.00 0.00 13.06
2021-10-17 06:00 PM 0.00 0.00 0.00 0.00 0.00 0.00 0.00 13.01 0.00 0.00 13.34
2021-10-17 05:00 PM 0.00 0.00 0.00 0.00 0.00 0.00 0.00 63.04 0.00 0.00 13.96
2021-10-17 04:00 PM 0.00 0.00 0.00 0.00 0.00 0.00 0.00 320.40 0.00 0.00 14.00
2021-10-17 03:00 PM 0.00 0.00 0.00 0.00 0.00 0.00 0.00 436.90 0.00 0.00 14.02
2021-10-17 02:00 PM 0.00 0.00 0.00 0.00 0.00 0.00 0.00 107.20 0.00 0.00 14.01
2021-10-17 01:00 PM 0.00 0.00 0.00 0.00 0.00 0.00 0.00 326.50 0.00 0.00 13.93
2021-10-17 12:00 PM 0.00 0.00 0.00 0.00 0.00 0.00 0.00 365.00 0.00 0.00 13.93
2021-10-17 11:00 AM 0.00 0.00 0.00 0.00 0.00 0.00 0.00 418.20 0.00 0.00 14.05
2021-10-17 10:00 AM 0.00 0.00 0.00 0.00 0.00 0.00 0.00 406.20 0.00 0.00 14.12
2021-10-17 09:00 AM 0.00 0.00 0.00 0.00 0.00 0.00 0.00 328.60 0.00 0.00 14.71
2021-10-17 08:00 AM 0.00 0.00 0.00 0.00 0.00 0.00 0.00 187.70 0.00 0.00 13.33
2021-10-17 07:00 AM 0.00 0.00 0.00 0.00 0.00 0.00 0.00 2.14 0.00 0.00 12.81
2021-10-17 06:00 AM 0.00 0.00 0.00 0.00 0.00 0.00 0.00 -2.40 0.00 0.00 12.82
2021-10-17 05:00 AM 0.00 0.00 0.00 0.00 0.00 0.00 0.00 -3.40 0.00 0.00 12.83
2021-10-17 04:00 AM 0.00 0.00 0.00 0.00 0.00 0.00 0.00 -5.00 0.00 0.00 12.85
2021-10-17 03:00 AM 0.00 0.00 0.00 0.00 0.00 0.00 0.00 -2.53 0.00 0.00 12.86
2021-10-17 02:00 AM 0.00 0.00 0.00 0.00 0.00 0.00 0.00 -2.96 0.00 0.00 12.88
2021-10-17 01:00 AM 0.00 0.00 0.00 0.00 0.00 0.00 0.00 -1.25 0.00 0.00 12.90
2021-10-17 12:00 AM 0.00 0.00 0.00 0.00 0.00 0.00 0.00 -3.65 0.00 0.00 12.92
2021-10-16 11:00 PM 0.00 0.00 0.00 0.00 0.00 0.00 0.00 -3.08 0.00 0.00 12.95
2021-10-16 10:00 PM 0.00 0.00 0.00 0.00 0.00 0.00 0.00 -4.42 0.00 0.00 12.97
2021-10-16 09:00 PM 0.00 0.00 0.00 0.00 0.00 0.00 0.00 -3.91 0.00 0.00 12.99
2021-10-16 08:00 PM 0.00 0.00 0.00 0.00 0.00 0.00 0.00 -3.54 0.00 0.00 13.02
2021-10-16 07:00 PM 0.00 0.00 0.00 0.00 0.00 0.00 0.00 -2.92 0.00 0.00 13.07
2021-10-16 06:00 PM 0.00 0.00 0.00 0.00 0.00 0.00 0.00 5.78 0.00 0.00 13.44
2021-10-16 05:00 PM 0.00 0.00 0.00 0.00 0.00 0.00 0.00 223.40 0.00 0.00 13.81
2021-10-16 04:00 PM 0.00 0.00 0.00 0.00 0.00 0.00 0.00 401.00 0.00 0.00 13.81
2021-10-16 03:00 PM 0.00 0.00 0.00 0.00 0.00 0.00 0.00 558.80 0.00 0.00 13.92
2021-10-16 02:00 PM 0.00 0.00 0.00 0.00 0.00 0.00 0.00 668.80 0.00 0.00 13.82
2021-10-16 01:00 PM 0.00 0.00 0.00 0.00 0.00 0.00 0.00 715.80 0.00 0.00 13.85
2021-10-16 12:00 PM 0.00 0.00 0.00 0.00 0.00 0.00 0.00 695.60 0.00 0.00 13.91
2021-10-16 11:00 AM 0.00 0.00 0.00 0.00 0.00 0.00 0.00 619.70 0.00 0.00 14.01
2021-10-16 10:00 AM 0.00 0.00 0.00 0.00 0.00 0.00 0.00 488.90 0.00 0.00 14.13
2021-10-16 09:00 AM 0.00 0.00 0.00 0.00 0.00 0.00 0.00 325.30 0.00 0.00 14.81
2021-10-16 08:00 AM 0.00 0.00 0.00 0.00 0.00 0.00 0.00 156.50 0.00 0.00 13.04
2021-10-16 07:00 AM 0.00 0.00 0.00 0.00 0.00 0.00 0.00 -1.24 0.00 0.00 12.78
2021-10-16 06:00 AM 0.00 0.00 0.00 0.00 0.00 0.00 0.00 -3.45 0.00 0.00 12.80
2021-10-16 05:00 AM 0.00 0.00 0.00 0.00 0.00 0.00 0.00 -2.90 0.00 0.00 12.81
2021-10-16 04:00 AM 0.00 0.00 0.00 0.00 0.00 0.00 0.00 -3.33 0.00 0.00 12.83
2021-10-16 03:00 AM 0.00 0.00 0.00 0.00 0.00 0.00 0.00 -2.73 0.00 0.00 12.84
2021-10-16 02:00 AM 0.00 0.00 0.00 0.00 0.00 0.00 0.00 -2.15 0.00 0.00 12.86
2021-10-16 01:00 AM 0.00 0.00 0.00 0.00 0.00 0.00 0.00 -2.74 0.00 0.00 12.88
2021-10-16 12:00 AM 0.00 0.00 0.00 0.00 0.00 0.00 0.00 -2.83 0.00 0.00 12.96
2021-10-15 11:00 PM 0.00 0.00 0.00 0.00 0.00 0.00 0.00 -2.95 0.00 0.00 12.92
2021-10-15 10:00 PM 0.00 0.00 0.00 0.00 0.00 0.00 0.00 -4.81 0.00 0.00 12.95
2021-10-15 09:00 PM 0.00 0.00 0.00 0.00 0.00 0.00 0.00 -2.36 0.00 0.00 12.98
2021-10-15 08:00 PM 0.00 0.00 0.00 0.00 0.00 0.00 0.00 -3.32 0.00 0.00 13.01
2021-10-15 07:00 PM 0.00 0.00 0.00 0.00 0.00 0.00 0.00 -2.82 0.00 0.00 13.07
2021-10-15 06:00 PM 0.00 0.00 0.00 0.00 0.00 0.00 0.00 13.37 0.00 0.00 13.86
2021-10-15 05:00 PM 0.00 0.00 0.00 0.00 0.00 0.00 0.00 223.80 0.00 0.00 13.93
2021-10-15 04:00 PM 0.00 0.00 0.00 0.00 0.00 0.00 0.00 399.40 0.00 0.00 13.96
2021-10-15 03:00 PM 0.00 0.00 0.00 0.00 0.00 0.00 0.00 554.50 0.00 0.00 13.94
2021-10-15 02:00 PM 0.00 0.00 0.00 0.00 0.00 0.00 0.00 663.40 0.00 0.00 13.97
2021-10-15 01:00 PM 0.00 0.00 0.00 0.00 0.00 0.00 0.00 713.60 0.00 0.00 14.06
2021-10-15 12:00 PM 0.00 0.00 0.00 0.00 0.00 0.00 0.00 697.70 0.00 0.00 14.08
2021-10-15 11:00 AM 0.00 0.00 0.00 0.00 0.00 0.00 0.00 620.10 0.00 0.00 14.16
2021-10-15 10:00 AM 0.00 0.00 0.00 0.00 0.00 0.00 0.00 492.10 0.00 0.00 14.24
2021-10-15 09:00 AM 0.00 0.00 0.00 0.00 0.00 0.00 0.00 326.50 0.00 0.00 14.85
2021-10-15 08:00 AM 0.00 0.00 0.00 0.00 0.00 0.00 0.00 158.00 0.00 0.00 13.13
2021-10-15 07:00 AM 0.00 0.00 0.00 0.00 0.00 0.00 0.00 -1.63 0.00 0.00 12.77
2021-10-15 06:00 AM 0.00 0.00 0.00 0.00 0.00 0.00 0.00 -1.62 0.00 0.00 12.77
2021-10-15 05:00 AM 0.00 0.00 0.00 0.00 0.00 0.00 0.00 -1.67 0.00 0.00 12.80
2021-10-15 04:00 AM 0.00 0.00 0.00 0.00 0.00 0.00 0.00 -1.83 0.00 0.00 12.82
2021-10-15 03:00 AM 0.00 0.00 0.00 0.00 0.00 0.00 0.00 -3.03 0.00 0.00 12.83
2021-10-15 02:00 AM 0.00 0.00 0.00 0.00 0.00 0.00 0.00 -2.35 0.00 0.00 12.85
2021-10-15 01:00 AM 0.00 0.00 0.00 0.00 0.00 0.00 0.00 -3.33 0.00 0.00 12.87
2021-10-15 12:00 AM 0.00 0.00 0.00 0.00 0.00 0.00 0.00 -1.97 0.00 0.00 12.83
2021-10-14 11:00 PM 0.00 0.00 0.00 0.00 0.00 0.00 0.00 -3.90 0.00 0.00 12.92
2021-10-14 10:00 PM 0.00 0.00 0.00 0.00 0.00 0.00 0.00 -3.12 0.00 0.00 12.94
2021-10-14 09:00 PM 0.00 0.00 0.00 0.00 0.00 0.00 0.00 -3.05 0.00 0.00 12.97
2021-10-14 08:00 PM 0.00 0.00 0.00 0.00 0.00 0.00 0.00 -4.11 0.00 0.00 13.01
2021-10-14 07:00 PM 0.00 0.00 0.00 0.00 0.00 0.00 0.00 -3.97 0.00 0.00 13.07
2021-10-14 06:00 PM 0.00 0.00 0.00 0.00 0.00 0.00 0.00 36.82 0.00 0.00 14.17
2021-10-14 05:00 PM 0.00 0.00 0.00 0.00 0.00 0.00 0.00 225.60 0.00 0.00 14.03
2021-10-14 04:00 PM 0.00 0.00 0.00 0.00 0.00 0.00 0.00 153.90 0.00 0.00 14.02
2021-10-14 03:00 PM 0.00 0.00 0.00 0.00 0.00 0.00 0.00 601.00 0.00 0.00 14.00
2021-10-14 02:00 PM 0.00 0.00 0.00 0.00 0.00 0.00 0.00 689.50 0.00 0.00 14.03
2021-10-14 01:00 PM 0.00 0.00 0.00 0.00 0.00 0.00 0.00 288.80 0.00 0.00 14.09
2021-10-14 12:00 PM 0.00 0.00 0.00 0.00 0.00 0.00 0.00 700.50 0.00 0.00 14.11
2021-10-14 11:00 AM 0.00 0.00 0.00 0.00 0.00 0.00 0.00 624.00 0.00 0.00 14.21
2021-10-14 10:00 AM 0.00 0.00 0.00 0.00 0.00 0.00 0.00 494.80 0.00 0.00 14.30
2021-10-14 09:00 AM 0.00 0.00 0.00 0.00 0.00 0.00 0.00 331.40 0.00 0.00 14.83
2021-10-14 08:00 AM 0.00 0.00 0.00 0.00 0.00 0.00 0.00 156.80 0.00 0.00 13.12
2021-10-14 07:00 AM 0.00 0.00 0.00 0.00 0.00 0.00 0.00 -2.17 0.00 0.00 12.82
2021-10-14 06:00 AM 0.00 0.00 0.00 0.00 0.00 0.00 0.00 -3.30 0.00 0.00 12.85
2021-10-14 05:00 AM 0.00 0.00 0.00 0.00 0.00 0.00 0.00 -3.50 0.00 0.00 12.87
2021-10-14 04:00 AM 0.00 0.00 0.00 0.00 0.00 0.00 0.00 -3.54 0.00 0.00 12.88
2021-10-14 03:00 AM 0.00 0.00 0.00 0.00 0.00 0.00 0.00 -2.04 0.00 0.00 12.89
2021-10-14 02:00 AM 0.00 0.00 0.00 0.00 0.00 0.00 0.00 -1.41 0.00 0.00 12.91
2021-10-14 01:00 AM 0.00 0.00 0.00 0.00 0.00 0.00 0.00 -4.23 0.00 0.00 12.92
2021-10-14 12:00 AM 0.00 0.00 0.00 0.00 0.00 0.00 0.00 -2.09 0.00 0.00 12.93
2021-10-13 11:00 PM 0.00 0.00 0.00 0.00 0.00 0.00 0.00 -3.18 0.00 0.00 12.94
2021-10-13 10:00 PM 0.00 0.00 0.00 0.00 0.00 0.00 0.00 -3.77 0.00 0.00 12.97
2021-10-13 09:00 PM 0.00 0.00 0.00 0.00 0.00 0.00 0.00 -1.44 0.00 0.00 13.00
2021-10-13 08:00 PM 0.00 0.00 0.00 0.00 0.00 0.00 0.00 -3.12 0.00 0.00 13.03
2021-10-13 07:00 PM 0.00 0.00 0.00 0.00 0.00 0.00 0.00 -3.54 0.00 0.00 13.08
2021-10-13 06:00 PM 0.00 0.00 0.00 0.00 0.00 0.00 0.00 40.73 0.00 0.00 14.19
2021-10-13 05:00 PM 0.00 0.00 0.00 0.00 0.00 0.00 0.00 88.10 0.00 0.00 14.13
2021-10-13 04:00 PM 0.00 0.00 0.00 0.00 0.00 0.00 0.00 424.50 0.00 0.00 14.18
2021-10-13 03:00 PM 0.00 0.00 0.00 0.00 0.00 0.00 0.00 194.40 0.00 0.00 14.15
2021-10-13 02:00 PM 0.00 0.00 0.00 0.00 0.00 0.00 0.00 246.10 0.00 0.00 14.58
2021-10-13 01:00 PM 0.00 100.00 818.80 7.30 331.00 0.00 0.00 259.40 0.00 0.00 14.16
2021-10-13 12:00 PM 0.00 100.00 818.80 7.30 331.00 0.00 0.00 1,041.00 0.00 0.00 14.65
2021-10-13 11:00 AM 0.00 100.00 818.80 7.30 331.00 0.00 0.00 262.90 0.00 0.00 14.70
2021-10-13 10:00 AM 0.00 100.00 818.80 7.30 331.00 0.00 0.00 221.10 0.00 0.00 14.78
2021-10-13 09:00 AM 0.00 100.00 818.80 7.30 331.00 0.00 0.00 76.30 0.00 0.00 13.29
2021-10-13 08:00 AM 0.00 100.00 818.80 7.30 331.00 0.00 0.00 73.82 0.00 0.00 12.78
2021-10-13 07:00 AM 0.00 100.00 818.80 7.30 331.00 0.00 0.00 -10.55 0.00 0.00 12.71
2021-10-13 06:00 AM 0.00 100.00 818.80 7.30 331.00 0.00 0.00 -9.83 0.00 0.00 12.72
2021-10-13 05:00 AM 0.00 100.00 818.80 7.30 331.00 0.00 0.00 -10.63 0.00 0.00 12.75
2021-10-13 04:00 AM 0.00 100.00 818.80 7.30 331.00 0.00 0.00 -10.57 0.00 0.00 12.74
2021-10-13 03:00 AM 0.00 100.00 818.80 7.30 331.00 0.00 0.00 -10.19 0.00 0.00 12.75
2021-10-13 02:00 AM 0.00 100.00 818.80 7.30 331.00 0.00 0.00 -10.48 0.00 0.00 12.77
2021-10-13 01:00 AM 0.00 100.00 818.80 7.30 331.00 0.00 0.00 -11.94 0.00 0.00 12.79
2021-10-13 12:00 AM 0.00 100.00 818.80 7.30 331.00 0.00 0.00 -10.92 0.00 0.00 12.82
2021-10-12 11:00 PM 0.00 100.00 818.80 7.30 331.00 0.00 0.00 -12.19 0.00 0.00 12.86
2021-10-12 10:00 PM 0.00 100.00 818.80 7.30 331.00 0.00 0.00 -13.49 0.00 0.00 12.87
2021-10-12 09:00 PM 0.00 100.00 818.80 7.30 331.00 0.00 0.00 -12.92 0.00 0.00 12.90
2021-10-12 08:00 PM 0.00 100.00 818.80 7.30 331.00 0.00 0.00 -13.33 0.00 0.00 12.95
2021-10-12 07:00 PM 0.00 100.00 818.80 7.30 331.00 0.00 0.00 -14.37 0.00 0.00 13.01
2021-10-12 06:00 PM 0.00 100.00 818.80 7.30 331.00 0.00 0.00 25.84 0.00 0.00 13.44
2021-10-12 05:00 PM 0.00 100.00 818.80 7.30 331.00 0.00 0.00 154.00 0.00 0.00 14.24
2021-10-12 04:00 PM 0.00 100.00 818.80 7.30 331.00 0.00 0.00 258.70 0.00 0.00 14.18
2021-10-12 03:00 PM 0.00 100.00 818.80 7.30 331.00 0.00 0.00 379.60 0.00 0.00 14.16
2021-10-12 02:00 PM 0.00 100.00 818.80 7.30 331.00 0.00 0.00 691.90 0.00 0.00 14.18
2021-10-12 01:00 PM 0.00 100.00 818.80 7.30 331.00 0.00 0.00 732.40 0.00 0.00 14.21
2021-10-12 12:00 PM 0.00 100.00 818.80 7.30 331.00 0.00 0.00 718.00 0.00 0.00 14.27
2021-10-12 11:00 AM 0.00 100.00 818.80 7.30 331.00 0.00 0.00 640.70 0.00 0.00 14.37
2021-10-12 10:00 AM 0.00 100.00 818.80 7.30 331.00 0.00 0.00 504.80 0.00 0.00 14.83
2021-10-12 09:00 AM 0.00 100.00 818.80 7.30 331.00 0.00 0.00 340.80 0.00 0.00 14.93
2021-10-12 08:00 AM 0.00 100.00 818.80 7.30 331.00 0.00 0.00 166.20 0.00 0.00 12.84
2021-10-12 07:00 AM 0.00 100.00 818.80 7.30 331.00 0.00 0.00 -10.23 0.00 0.00 12.69
2021-10-12 06:00 AM 0.00 100.00 818.80 7.30 331.00 0.00 0.00 -12.25 0.00 0.00 12.69
2021-10-12 05:00 AM 0.00 100.00 818.80 7.30 331.00 0.00 0.00 -12.72 0.00 0.00 12.66
2021-10-12 04:00 AM 0.00 100.00 818.80 7.30 331.00 0.00 0.00 -12.18 0.00 0.00 12.72
2021-10-12 03:00 AM 0.00 100.00 818.80 7.30 331.00 0.00 0.00 -12.89 0.00 0.00 12.73
2021-10-12 02:00 AM 0.00 100.00 818.80 7.30 331.00 0.00 0.00 -12.32 0.00 0.00 12.75
2021-10-12 01:00 AM 0.00 100.00 818.80 7.30 331.00 0.00 0.00 -12.51 0.00 0.00 12.78
2021-10-12 12:00 AM 0.00 100.00 818.80 7.30 331.00 0.00 0.00 -12.15 0.00 0.00 12.81
2021-10-11 11:00 PM 0.00 100.00 818.80 7.30 331.00 0.00 0.00 -12.45 0.00 0.00 12.84
2021-10-11 10:00 PM 0.00 100.00 818.80 7.30 331.00 0.00 0.00 -12.55 0.00 0.00 12.87
2021-10-11 09:00 PM 0.00 100.00 818.80 7.30 331.00 0.00 0.00 -12.84 0.00 0.00 12.90
2021-10-11 08:00 PM 0.00 100.00 818.80 7.30 331.00 0.00 0.00 -12.90 0.00 0.00 12.93
2021-10-11 07:00 PM 0.00 100.00 818.80 7.30 331.00 0.00 0.00 -12.97 0.00 0.00 13.00
2021-10-11 06:00 PM 0.00 100.00 818.80 7.30 331.00 0.00 0.00 44.25 0.00 0.00 14.37
2021-10-11 05:00 PM 0.00 100.00 818.80 7.30 331.00 0.00 0.00 236.60 0.00 0.00 14.40
2021-10-11 04:00 PM 0.00 100.00 818.80 7.30 331.00 0.00 0.00 53.32 0.00 0.00 14.34
2021-10-11 03:00 PM 0.00 100.00 818.80 7.30 331.00 0.00 0.00 618.70 0.00 0.00 14.35
2021-10-11 02:00 PM 0.00 100.00 818.80 7.30 331.00 0.00 0.00 672.50 0.00 0.00 14.36
2021-10-11 01:00 PM 0.00 100.00 818.80 7.30 331.00 0.00 0.00 352.20 0.00 0.00 14.36
2021-10-11 12:00 PM 0.00 100.00 818.80 7.30 331.00 0.00 0.00 739.00 0.00 0.00 14.41
2021-10-11 11:00 AM 0.00 100.00 818.80 7.30 331.00 0.00 0.00 359.10 0.00 0.05 14.86
2021-10-11 10:00 AM 0.00 100.00 818.80 7.30 331.00 0.00 0.00 222.10 0.00 0.06 14.91
2021-10-11 09:00 AM 0.00 100.00 818.80 7.30 331.00 0.00 0.00 99.20 0.00 0.03 13.36
2021-10-11 08:00 AM 0.00 100.00 818.80 7.30 331.00 0.00 0.00 45.26 0.00 0.00 12.90
2021-10-11 07:00 AM 0.00 100.00 818.80 7.30 331.00 0.00 0.00 -8.23 0.00 0.00 12.75
2021-10-11 06:00 AM 0.00 100.00 818.80 7.30 331.00 0.00 0.00 -9.62 0.00 0.01 12.76
2021-10-11 05:00 AM 0.00 100.00 818.80 7.30 331.00 0.00 0.00 -9.11 0.00 0.06 12.78
2021-10-11 04:00 AM 0.00 100.00 818.80 7.30 331.00 0.00 0.00 -9.22 0.00 0.06 12.79
2021-10-11 03:00 AM 0.00 100.00 818.80 7.30 331.00 0.00 0.00 -10.65 0.00 0.05 12.81
2021-10-11 02:00 AM 0.00 100.00 818.80 7.30 331.00 0.00 0.00 -10.03 0.00 0.06 12.83
2021-10-11 01:00 AM 0.00 100.00 818.80 7.30 331.00 0.00 0.00 -9.36 0.00 0.08 12.85
2021-10-11 12:00 AM 0.00 100.00 818.80 7.30 331.00 0.00 0.00 -9.64 0.00 0.08 12.87
2021-10-10 11:00 PM 0.00 100.00 818.80 7.30 331.00 0.00 0.00 -10.64 0.00 0.06 12.90
2021-10-10 10:00 PM 0.30 100.00 818.80 7.30 331.00 0.30 0.00 -7.32 -0.22 0.00 12.93
2021-10-10 09:00 PM 3.30 83.30 818.50 6.90 27.00 0.74 0.00 -10.97 -0.10 0.00 12.96
2021-10-10 08:00 PM 7.40 56.70 817.60 2.40 356.00 -0.63 0.00 -3.27 -0.37 0.00 13.03
2021-10-10 07:00 PM 8.30 53.70 817.90 1.20 59.00 -0.53 0.00 -4.79 -0.37 0.00 13.09
2021-10-10 06:00 PM 12.20 39.70 818.50 8.00 287.00 -1.10 0.00 65.60 -0.32 0.00 13.97
2021-10-10 05:00 PM 13.20 38.00 819.00 7.40 234.00 -0.80 0.00 97.80 -0.15 0.00 13.91
2021-10-10 04:00 PM 14.50 34.80 819.70 7.00 211.00 -0.85 0.00 214.20 -0.21 0.00 13.87
2021-10-10 03:00 PM 14.30 34.50 820.50 5.20 220.00 -1.14 0.00 736.80 0.21 0.00 13.86
2021-10-10 02:00 PM 14.30 35.50 821.40 7.40 194.00 -0.75 0.00 709.00 -0.05 0.00 13.86
2021-10-10 01:00 PM 13.40 36.00 822.60 4.40 198.00 -1.36 0.00 1,058.00 0.32 0.00 13.87
2021-10-10 12:00 PM 12.60 36.60 823.30 3.50 224.00 -1.85 0.00 270.50 -0.08 0.00 13.90
2021-10-10 11:00 AM 11.80 36.10 823.70 1.30 175.00 -2.74 0.00 641.30 0.00 0.00 14.00
2021-10-10 10:00 AM 9.70 40.40 824.30 0.50 65.00 -3.11 0.00 499.60 -0.38 0.00 14.52
2021-10-10 09:00 AM 5.10 67.10 824.60 2.00 249.00 -0.50 0.00 325.30 -0.16 0.00 14.79
2021-10-10 08:00 AM -3.40 89.40 824.80 1.50 149.00 -4.89 0.00 159.70 0.36 0.00 12.95
2021-10-10 07:00 AM -5.00 88.10 824.60 2.10 31.00 -6.67 0.00 -7.71 -0.37 0.00 12.72
2021-10-10 06:00 AM -5.40 92.00 824.60 4.40 47.00 -6.50 0.00 -11.78 -0.29 0.00 12.70
2021-10-10 05:00 AM -2.80 83.50 824.60 1.50 68.00 -5.20 0.00 -12.80 -0.78 0.00 12.74
2021-10-10 04:00 AM -4.20 86.70 824.80 2.00 346.00 -6.09 0.00 -12.96 -0.61 0.00 12.76
2021-10-10 03:00 AM -3.50 90.30 825.10 1.70 351.00 -4.86 0.00 -12.20 -0.33 0.00 12.78
2021-10-10 02:00 AM -2.80 86.50 825.50 3.90 77.00 -4.74 0.00 -12.63 -0.51 0.00 12.80
2021-10-10 01:00 AM -0.40 70.00 825.60 1.40 358.00 -5.20 0.00 -14.46 -0.85 0.00 12.82
2021-10-10 12:00 AM -1.40 79.60 825.60 1.60 49.00 -4.47 0.00 -12.27 -0.45 0.00 12.84
2021-10-09 11:00 PM -2.40 82.00 825.60 3.30 6.00 -5.05 0.00 -12.35 -0.27 0.00 12.87
2021-10-09 10:00 PM 2.00 63.90 825.60 2.10 66.00 -4.11 0.00 -12.52 -0.47 0.00 12.90
2021-10-09 09:00 PM 2.60 60.80 825.30 2.10 93.00 -4.21 0.00 -13.95 -0.74 0.00 12.93
2021-10-09 08:00 PM 2.60 63.10 825.10 3.40 115.00 -3.71 0.00 -13.70 -0.55 0.00 12.98
2021-10-09 07:00 PM 6.30 47.70 824.80 2.40 87.00 -3.99 0.00 -4.41 -0.65 0.00 13.08
2021-10-09 06:00 PM 10.90 34.40 824.60 2.30 318.00 -4.19 0.00 73.15 -0.27 0.00 13.99
2021-10-09 05:00 PM 12.00 30.00 824.70 3.10 300.00 -5.04 0.00 249.80 -0.28 0.00 13.94
2021-10-09 04:00 PM 12.20 31.90 824.80 8.40 333.00 -4.05 0.00 429.30 -0.21 0.00 13.93
2021-10-09 03:00 PM 11.90 34.30 824.80 6.30 301.00 -3.34 0.00 586.90 -0.13 0.00 13.93
2021-10-09 02:00 PM 10.50 39.40 824.90 5.90 38.00 -2.73 0.00 625.30 0.26 0.00 13.97
2021-10-09 01:00 PM 10.30 40.40 825.10 11.10 330.00 -2.57 0.00 750.70 0.00 0.00 14.00
2021-10-09 12:00 PM 8.60 44.10 825.30 2.80 330.00 -2.93 0.00 722.20 0.13 0.00 14.02
2021-10-09 11:00 AM 7.10 50.30 825.30 5.20 294.00 -2.54 0.00 644.60 0.01 0.00 14.12
2021-10-09 10:00 AM 5.60 51.70 825.10 3.50 306.00 -3.56 0.00 510.30 -0.10 0.00 14.61
2021-10-09 09:00 AM 2.30 70.30 824.80 4.90 303.00 -2.55 0.00 333.40 -0.02 0.00 14.81
2021-10-09 08:00 AM -2.90 94.00 824.60 2.30 356.00 -3.73 0.00 154.30 -0.10 0.00 13.07
2021-10-09 07:00 AM -5.30 91.70 823.80 3.80 64.00 -6.44 0.00 -8.29 -0.33 0.00 12.75
2021-10-09 06:00 AM -4.60 90.60 823.50 1.90 133.00 -5.90 0.00 -13.21 -0.39 0.00 12.73
2021-10-09 05:00 AM -4.10 100.00 823.00 3.80 22.00 -4.10 0.00 -11.04 -0.31 0.00 12.77
2021-10-09 04:00 AM -2.80 84.90 822.50 3.20 86.00 -4.99 0.00 -12.91 -0.59 0.00 12.79
2021-10-09 03:00 AM -0.70 76.70 822.20 2.40 319.00 -4.28 0.00 -13.50 -0.58 0.00 12.81
2021-10-09 02:00 AM -2.90 86.30 821.80 2.60 122.00 -4.87 0.00 -13.74 -0.27 0.00 12.83
2021-10-09 01:00 AM -2.30 82.30 821.30 4.50 35.00 -4.91 0.00 -13.65 -0.70 0.00 12.85
2021-10-09 12:00 AM -0.80 79.40 820.80 2.00 57.00 -3.92 0.00 -12.85 -0.38 0.00 12.87
2021-10-08 11:00 PM -0.30 73.10 820.40 3.50 30.00 -4.53 0.00 -5.75 -0.48 0.00 12.94
2021-10-08 10:00 PM 4.10 56.00 819.80 1.20 306.00 -3.89 0.00 -5.12 -0.58 0.00 12.96
2021-10-08 09:00 PM 5.20 48.70 819.20 1.80 341.00 -4.72 0.00 -4.69 -0.60 0.00 12.99
2021-10-08 08:00 PM 4.00 57.70 818.50 1.10 6.00 -3.58 0.00 -3.57 -0.15 0.00 13.02
2021-10-08 07:00 PM 5.70 50.00 817.90 2.10 268.00 -3.91 0.00 -3.59 -0.15 0.00 13.08
2021-10-08 06:00 PM 9.40 39.40 817.30 7.10 286.00 -3.72 0.00 99.00 -0.09 0.00 14.06
2021-10-08 05:00 PM 10.30 59.10 817.10 2.50 289.00 2.67 0.00 338.70 0.06 0.00 14.03
2021-10-08 04:00 PM 9.60 54.60 816.90 4.30 274.00 0.91 0.00 144.20 -0.12 0.00 14.04
2021-10-08 03:00 PM 9.50 59.80 816.90 5.00 224.00 2.08 0.00 218.50 0.14 0.00 14.06
2021-10-08 02:00 PM 9.90 37.10 817.10 3.70 325.00 -4.07 0.00 268.60 -0.12 0.00 14.06
2021-10-08 01:00 PM 9.10 56.70 817.30 13.70 297.00 0.97 0.00 934.00 0.04 0.00 14.52
2021-10-08 12:00 PM 6.60 78.50 817.70 4.70 163.00 3.14 0.00 176.30 -0.02 0.00 14.59
2021-10-08 11:00 AM 5.70 85.40 817.80 2.30 264.00 3.45 0.00 155.60 -0.03 0.00 13.99
2021-10-08 10:00 AM 5.30 88.20 817.70 0.30 189.00 3.51 0.00 176.50 0.01 0.00 14.30
2021-10-08 09:00 AM 4.20 92.60 817.80 4.60 210.00 3.11 0.00 77.48 -0.09 0.00 13.04
2021-10-08 08:00 AM 3.90 85.80 817.30 1.20 106.00 1.74 0.00 14.65 -0.09 0.00 12.80
2021-10-08 07:00 AM 3.40 95.40 818.00 5.90 167.00 2.74 0.00 -9.31 -0.07 0.00 12.76
2021-10-08 06:00 AM 4.10 91.90 818.30 4.10 229.00 2.91 0.06 -9.36 -0.13 0.00 12.76
2021-10-08 05:00 AM 5.20 99.60 817.90 3.90 191.00 5.15 0.00 -10.85 -0.32 0.00 12.77
2021-10-08 04:00 AM 3.90 100.00 817.90 1.20 34.00 3.90 0.00 -10.37 -0.32 0.00 12.78
2021-10-08 03:00 AM 4.20 100.00 818.10 1.90 79.00 4.20 0.00 -10.37 -0.29 0.00 12.79
2021-10-08 02:00 AM 3.50 100.00 818.10 3.30 334.00 3.50 0.00 -10.02 -0.29 0.00 12.80
2021-10-08 01:00 AM 3.60 99.50 818.20 1.80 17.00 3.53 0.00 -10.38 -0.19 0.00 12.81
2021-10-08 12:00 AM 4.30 95.10 818.50 4.70 97.00 3.59 0.00 -10.16 -0.28 0.00 12.82
2021-10-07 11:00 PM 3.50 100.00 818.60 2.00 259.00 3.50 0.00 -10.45 -0.56 0.00 12.84
2021-10-07 10:00 PM 1.60 100.00 818.50 1.80 84.00 1.60 0.00 -10.50 -0.34 0.00 12.86
2021-10-07 09:00 PM 2.00 96.60 818.50 2.90 37.00 1.52 0.00 -11.95 -0.39 0.00 12.88
2021-10-07 08:00 PM 3.50 97.20 818.80 1.70 35.00 3.10 0.00 -12.74 -0.42 0.00 12.91
2021-10-07 07:00 PM 5.10 95.60 818.70 3.60 63.00 4.46 0.00 -12.13 -0.38 0.00 12.94
2021-10-07 06:00 PM 5.50 98.90 819.60 5.60 111.00 5.35 0.08 1.84 -0.08 0.00 13.00
2021-10-07 05:00 PM 9.20 84.30 819.20 1.40 234.00 6.70 0.00 55.27 0.11 0.00 13.45
2021-10-07 04:00 PM 8.60 81.50 819.30 1.00 230.00 5.62 0.00 159.00 0.11 0.00 14.16
2021-10-07 03:00 PM 8.50 84.50 820.00 7.00 196.00 6.05 0.00 48.00 -0.01 0.00 13.37
2021-10-07 02:00 PM 9.10 78.20 820.00 4.20 200.00 5.51 0.00 199.00 0.14 0.00 14.14
2021-10-07 01:00 PM 7.80 89.30 820.60 2.40 242.00 6.16 0.00 217.90 0.21 0.00 14.17
2021-10-07 12:00 PM 8.10 76.80 821.00 8.10 207.00 4.28 0.01 86.00 -0.05 0.00 13.69
2021-10-07 11:00 AM 11.80 45.60 820.30 6.70 188.00 0.44 0.00 240.00 0.00 0.00 14.43
2021-10-07 10:00 AM 11.50 47.60 820.30 5.60 215.00 0.76 0.00 232.30 2.06 0.00 14.49
2021-10-07 09:00 AM 9.60 54.90 820.40 1.50 49.00 0.98 0.00 340.50 2.29 0.00 14.69
2021-10-07 08:00 AM 1.00 81.60 820.40 0.70 190.00 -1.79 0.00 118.10 2.27 0.00 13.02